Time;durP1;ratioP1;P1;durP2;ratioP2;P2;SDS_P1;SDS_P2;PMS_P1;PMS_P2;Temp;Humidity;BMP_temperature;BMP_pressure;BME280_temperature;BME280_humidity;BME280_pressure;Samples;Min_cycle;Max_cycle;Signal;HPM_P1;HPM_P2
2021/10/02 00:33:46;;;;;;;11.00;5.77;;;;;;;11.82;71.66;95690.56;4963853;28;20481;-79
2021/10/02 00:36:34;;;;;;;7.20;5.90;;;;;;;11.71;71.78;95688.75;4978796;28;20992;-80
2021/10/02 00:41:56;;;;;;;6.67;6.07;;;;;;;11.40;73.09;95679.72;5011958;28;20989;-80
2021/10/02 00:44:38;;;;;;;6.23;4.93;;;;;;;11.40;72.70;95681.53;5011689;28;20549;-80
2021/10/02 00:47:05;;;;;;;5.90;5.20;;;;;;;11.43;73.61;95683.91;5011752;28;20459;-80
2021/10/02 00:49:33;;;;;;;5.67;5.17;;;;;;;11.42;72.33;95682.25;4963387;28;20451;-79
2021/10/02 00:52:00;;;;;;;5.43;4.93;;;;;;;11.47;72.76;95677.47;5011710;28;20446;-80
2021/10/02 00:54:27;;;;;;;7.33;5.10;;;;;;;11.45;72.58;95682.84;5054163;28;20449;-80
2021/10/02 00:56:54;;;;;;;5.37;4.80;;;;;;;11.48;72.01;95671.25;5073739;28;20452;-80
2021/10/02 00:59:21;;;;;;;6.60;5.27;;;;;;;11.49;72.37;95668.50;5073897;28;20447;-80
2021/10/02 01:01:55;;;;;;;5.43;4.70;;;;;;;11.51;72.60;95676.28;5054339;28;20479;-79
2021/10/02 01:04:30;;;;;;;7.53;4.67;;;;;;;11.52;72.76;95666.59;5073877;28;20481;-80
2021/10/02 01:07:07;;;;;;;5.17;4.67;;;;;;;11.51;72.73;95665.78;5073634;28;20471;-80
2021/10/02 01:09:48;;;;;;;6.70;5.30;;;;;;;11.50;72.35;95671.97;5073416;28;20445;-79
2021/10/02 01:12:24;;;;;;;13.60;4.97;;;;;;;11.48;72.84;95666.84;5073473;28;20943;-80
2021/10/02 01:14:57;;;;;;;4.93;4.43;;;;;;;11.42;73.39;95671.72;5054550;28;20448;-79
2021/10/02 01:17:41;;;;;;;5.63;5.03;;;;;;;11.39;73.59;95666.72;5073306;28;20447;-79
2021/10/02 01:20:11;;;;;;;6.63;5.03;;;;;;;11.40;73.74;95663.97;5072955;28;20526;-79
2021/10/02 01:23:03;;;;;;;5.27;4.57;;;;;;;11.38;73.96;95649.28;5072990;28;20447;-79
2021/10/02 01:25:53;;;;;;;5.50;5.00;;;;;;;11.31;73.91;95648.06;5010845;28;21245;-79
2021/10/02 01:28:23;;;;;;;9.60;5.00;;;;;;;11.23;74.59;95650.41;5011257;28;20449;-79
2021/10/02 01:31:07;;;;;;;9.03;5.47;;;;;;;11.20;74.69;95651.47;5010724;28;20472;-79
2021/10/02 01:33:41;;;;;;;4.87;4.40;;;;;;;11.17;74.80;95644.66;5011163;28;20507;-79
2021/10/02 01:36:29;;;;;;;6.00;4.97;;;;;;;11.16;73.58;95647.41;5010942;28;20501;-80
2021/10/02 01:47:19;;;;;;;11.70;5.00;;;;;;;11.03;75.46;95634.38;5010815;28;20602;-79
2021/10/02 01:49:49;;;;;;;6.17;5.63;;;;;;;11.00;75.18;95642.50;4962722;28;20448;-79
2021/10/02 01:52:20;;;;;;;6.10;5.47;;;;;;;10.94;74.93;95640.28;5010727;28;20545;-79
2021/10/02 01:54:49;;;;;;;5.47;4.97;;;;;;;10.84;74.99;95636.69;5010698;28;20813;-79
2021/10/02 01:57:17;;;;;;;5.43;4.93;;;;;;;10.82;75.85;95638.59;5010385;28;20453;-79
2021/10/02 01:59:47;;;;;;;7.57;5.50;;;;;;;10.76;75.40;95636.41;5010591;28;20450;-79
2021/10/02 02:02:15;;;;;;;5.27;4.80;;;;;;;10.67;75.72;95632.66;5031295;28;20838;-79
2021/10/02 02:04:43;;;;;;;6.47;5.07;;;;;;;10.64;75.87;95637.31;5072666;28;20485;-79
2021/10/02 02:07:13;;;;;;;6.67;4.73;;;;;;;10.63;75.62;95635.63;5072405;28;20444;-79
2021/10/02 02:09:41;;;;;;;5.63;5.00;;;;;;;10.58;75.59;95635.13;5072448;28;20444;-80
2021/10/02 02:12:12;;;;;;;5.27;4.87;;;;;;;10.55;76.12;95634.41;5072065;28;20524;-79
2021/10/02 02:14:42;;;;;;;7.70;5.00;;;;;;;10.51;76.02;95629.50;5071625;28;20440;-79
2021/10/02 02:17:12;;;;;;;4.93;4.53;;;;;;;10.53;75.31;95635.47;5072020;28;20943;-79
2021/10/02 02:19:40;;;;;;;9.70;5.30;;;;;;;10.57;74.70;95636.91;5072277;28;20444;-79
2021/10/02 02:22:07;;;;;;;5.37;4.87;;;;;;;10.63;74.81;95638.25;5072421;28;20456;-79
2021/10/02 02:24:35;;;;;;;9.20;4.73;;;;;;;10.61;75.36;95633.13;5072040;28;20502;-79
2021/10/02 02:27:04;;;;;;;6.37;4.73;;;;;;;10.65;75.10;95637.19;5071983;28;20454;-80
2021/10/02 02:29:33;;;;;;;5.40;4.90;;;;;;;10.66;74.61;95636.22;5053305;28;20982;-80
2021/10/02 02:32:00;;;;;;;9.27;5.37;;;;;;;10.68;75.03;95633.50;5072189;28;20490;-79
2021/10/02 02:34:30;;;;;;;6.80;4.77;;;;;;;10.66;74.35;95636.22;5071710;28;20924;-79
2021/10/02 02:36:57;;;;;;;5.10;4.50;;;;;;;10.69;73.92;95637.78;5071683;28;20437;-80
2021/10/02 02:39:25;;;;;;;7.87;5.40;;;;;;;10.65;74.17;95636.34;5071961;28;20447;-79
2021/10/02 02:41:53;;;;;;;8.63;4.87;;;;;;;10.67;74.51;95631.81;5037019;28;20455;-79
2021/10/02 02:44:20;;;;;;;10.50;5.40;;;;;;;10.67;74.14;95637.91;5052874;28;20483;-79
2021/10/02 02:46:55;;;;;;;5.00;4.20;;;;;;;10.66;73.85;95633.59;5071891;28;20452;-79
2021/10/02 02:49:28;;;;;;;7.57;5.40;;;;;;;10.58;74.13;95633.34;5071911;28;20452;-79
2021/10/02 02:52:03;;;;;;;8.47;5.27;;;;;;;10.37;74.61;95640.97;5053137;28;20432;-80
2021/10/02 02:54:37;;;;;;;9.93;5.00;;;;;;;10.40;74.56;95634.66;5071585;28;20939;-79
2021/10/02 02:57:17;;;;;;;5.60;5.13;;;;;;;10.23;75.81;95633.28;5071986;28;20450;-79
2021/10/02 02:59:51;;;;;;;7.50;5.07;;;;;;;10.17;75.98;95638.94;5071767;28;20444;-79
2021/10/02 03:02:21;;;;;;;5.33;4.27;;;;;;;10.20;76.07;95639.56;5038046;28;20458;-79
2021/10/02 03:04:50;;;;;;;6.83;6.07;;;;;;;10.20;76.19;95638.72;5071406;28;21013;-79
2021/10/02 03:07:21;;;;;;;10.53;5.23;;;;;;;10.24;76.50;95642.81;5071567;28;20448;-79
2021/10/02 03:09:52;;;;;;;5.80;5.27;;;;;;;10.24;75.92;95640.19;5071385;28;20456;-79
2021/10/02 03:12:22;;;;;;;6.80;5.30;;;;;;;10.27;76.56;95633.88;5071827;28;20433;-79
2021/10/02 03:14:53;;;;;;;5.57;4.90;;;;;;;10.29;75.55;95638.06;5071451;28;20467;-80
2021/10/02 03:17:22;;;;;;;5.63;5.13;;;;;;;10.30;76.09;95641.53;5071414;28;20453;-79
2021/10/02 03:19:50;;;;;;;7.30;5.27;;;;;;;10.29;75.89;95627.56;5071732;28;20450;-80
2021/10/02 03:22:19;;;;;;;6.67;5.33;;;;;;;10.29;75.55;95626.75;5052865;28;20455;-79
2021/10/02 03:24:47;;;;;;;7.70;5.20;;;;;;;10.26;75.83;95633.03;5071736;28;20494;-80
2021/10/02 03:27:14;;;;;;;6.57;4.33;;;;;;;10.21;76.13;95630.75;5075588;28;20440;-79
2021/10/02 03:29:42;;;;;;;7.17;5.30;;;;;;;10.19;75.86;95631.78;5075517;28;20529;-79
2021/10/02 03:32:10;;;;;;;6.60;4.83;;;;;;;10.12;75.37;95628.78;5035196;28;20453;-79
2021/10/02 03:34:38;;;;;;;7.33;5.07;;;;;;;10.08;75.01;95629.06;5035850;28;20448;-79
2021/10/02 03:37:05;;;;;;;4.87;4.40;;;;;;;10.00;75.85;95623.53;5035174;28;20445;-79
2021/10/02 03:39:34;;;;;;;4.80;4.30;;;;;;;9.92;75.93;95624.94;5035337;28;20819;-79
2021/10/02 03:42:12;;;;;;;10.03;5.67;;;;;;;9.87;76.44;95620.97;5035167;28;20588;-79
2021/10/02 03:44:42;;;;;;;5.83;5.33;;;;;;;9.88;76.20;95618.22;5035036;28;20479;-79
2021/10/02 03:47:09;;;;;;;6.80;4.90;;;;;;;9.83;75.89;95615.09;5016420;28;20931;-79
2021/10/02 03:49:36;;;;;;;7.53;4.90;;;;;;;9.77;76.41;95612.88;5035059;28;20449;-79
2021/10/02 03:52:04;;;;;;;6.77;5.03;;;;;;;9.70;76.05;95614.25;5034928;28;20528;-79
2021/10/02 03:54:33;;;;;;;5.93;5.20;;;;;;;9.65;76.23;95610.28;5034887;28;20448;-79
2021/10/02 03:57:00;;;;;;;5.40;4.63;;;;;;;9.62;76.11;95608.72;5034773;28;20446;-79
2021/10/02 03:59:27;;;;;;;6.70;5.40;;;;;;;9.57;76.62;95609.06;5035004;28;20453;-79
2021/10/02 04:01:54;;;;;;;6.00;5.10;;;;;;;9.55;76.56;95607.47;5034909;28;20520;-79
2021/10/02 04:04:22;;;;;;;5.30;4.90;;;;;;;9.52;77.06;95605.88;5034591;28;20986;-79
2021/10/02 04:06:49;;;;;;;7.13;5.20;;;;;;;9.33;77.92;95605.50;5034622;28;20449;-78
2021/10/02 04:09:16;;;;;;;8.60;5.50;;;;;;;9.41;77.80;95610.19;5034393;28;20445;-79
2021/10/02 04:11:44;;;;;;;6.83;4.97;;;;;;;9.42;78.13;95610.09;5035391;28;20458;-79
2021/10/02 04:14:12;;;;;;;8.33;4.73;;;;;;;9.36;77.49;95604.44;5035689;28;20457;-79
2021/10/02 04:16:41;;;;;;;7.70;5.10;;;;;;;9.35;77.12;95608.00;5035761;28;20545;-79
2021/10/02 04:19:08;;;;;;;5.50;4.90;;;;;;;9.27;78.08;95617.22;5035489;28;20449;-79
2021/10/02 04:21:35;;;;;;;6.93;6.33;;;;;;;9.31;77.56;95610.84;5035510;28;20448;-79
2021/10/02 04:24:02;;;;;;;5.50;5.00;;;;;;;9.32;77.92;95614.28;5035370;28;20453;-79
2021/10/02 04:26:29;;;;;;;5.63;5.13;;;;;;;9.32;78.13;95615.13;5000755;28;20528;-82
2021/10/02 04:28:57;;;;;;;7.67;5.30;;;;;;;9.26;79.68;95615.56;5035321;28;20433;-82
2021/10/02 04:31:24;;;;;;;8.60;4.97;;;;;;;9.34;79.31;95607.16;5063840;28;20842;-83
2021/10/02 04:33:51;;;;;;;5.50;4.93;;;;;;;9.27;78.52;95616.41;5075829;28;20452;-82
2021/10/02 04:36:18;;;;;;;6.10;5.33;;;;;;;9.24;78.31;95622.66;5075170;28;20443;-81
2021/10/02 04:38:45;;;;;;;16.03;5.70;;;;;;;9.28;77.71;95618.91;5075290;28;20465;-79
2021/10/02 04:41:13;;;;;;;7.70;5.77;;;;;;;9.19;78.05;95616.06;5040141;28;20525;-79
2021/10/02 04:43:41;;;;;;;7.33;5.43;;;;;;;9.18;78.17;95612.59;5075066;28;20454;-79
2021/10/02 04:46:10;;;;;;;9.53;5.83;;;;;;;10.48;97.81;95611.34;5075203;28;21012;-79
2021/10/02 04:48:37;;;;;;;6.33;5.73;;;;;;;10.12;84.97;95630.53;5075221;28;20453;-78
2021/10/02 04:51:04;;;;;;;6.37;5.23;;;;;;;10.48;81.75;95630.56;5075397;28;20448;-79
2021/10/02 04:53:31;;;;;;;7.30;4.85;;;;;;;11.01;74.99;95631.03;5074154;28;20893;-79
2021/10/02 04:56:00;;;;;;;5.23;4.80;;;;;;;10.92;71.22;95633.47;5074980;28;20197;-79
2021/10/02 04:58:28;;;;;;;10.30;5.07;;;;;;;10.72;71.57;95630.56;5074854;28;20444;-79
2021/10/02 05:00:55;;;;;;;5.83;5.33;;;;;;;10.53;72.24;95630.22;5074581;28;20441;-79
2021/10/02 05:03:23;;;;;;;6.40;5.00;;;;;;;10.44;72.64;95634.34;5074531;28;20433;-78
2021/10/02 05:05:51;;;;;;;5.50;4.83;;;;;;;10.32;73.18;95632.59;5074339;28;20481;-79
2021/10/02 05:08:18;;;;;;;6.33;5.00;;;;;;;10.26;73.21;95627.81;5074569;28;20707;-78
2021/10/02 05:10:46;;;;;;;12.20;5.80;;;;;;;10.28;74.90;95636.41;5074438;28;20466;-78
2021/10/02 05:13:13;;;;;;;4.63;4.20;;;;;;;10.58;73.28;95627.25;5039250;28;20443;-79
2021/10/02 05:15:41;;;;;;;7.20;4.87;;;;;;;11.12;72.20;95635.47;5074086;28;20453;-79
2021/10/02 05:18:08;;;;;;;5.70;4.60;;;;;;;11.87;69.68;95635.88;5074201;28;20444;-79
2021/10/02 05:20:36;;;;;;;6.83;5.00;;;;;;;12.66;66.05;95629.50;5074144;28;20448;-79
2021/10/02 05:23:04;;;;;;;6.37;5.20;;;;;;;13.26;63.05;95629.88;5073818;28;20446;-79
2021/10/02 05:25:31;;;;;;;7.77;5.03;;;;;;;13.89;61.10;95631.50;5073963;28;20494;-79
2021/10/02 05:27:58;;;;;;;8.97;4.83;;;;;;;14.47;58.83;95636.19;5073794;28;20439;-79
2021/10/02 05:30:25;;;;;;;6.60;5.23;;;;;;;14.98;57.36;95635.97;5073931;28;20480;-79
2021/10/02 05:32:53;;;;;;;9.60;4.00;;;;;;;15.48;55.39;95628.69;5073718;28;20444;-79
2021/10/02 05:35:20;;;;;;;8.80;4.87;;;;;;;15.72;53.88;95627.44;5054988;28;20447;-79
2021/10/02 05:37:49;;;;;;;6.20;4.60;;;;;;;15.92;52.98;95638.81;5073192;28;20958;-79
2021/10/02 05:40:16;;;;;;;6.03;4.90;;;;;;;16.08;52.90;95634.56;5073164;28;20451;-79
2021/10/02 05:42:43;;;;;;;5.00;4.23;;;;;;;16.23;52.66;95637.56;5072620;28;20440;-79
2021/10/02 05:45:10;;;;;;;11.60;4.73;;;;;;;16.42;52.16;95636.63;5072691;28;20568;-79
2021/10/02 05:47:37;;;;;;;5.00;4.50;;;;;;;16.62;51.28;95637.34;5072647;28;20445;-79
2021/10/02 05:50:05;;;;;;;4.63;4.23;;;;;;;16.74;50.95;95638.84;5071694;28;20447;-79
2021/10/02 05:52:32;;;;;;;4.93;4.13;;;;;;;17.04;50.93;95635.81;5004473;28;20436;-79
2021/10/02 05:55:00;;;;;;;4.70;4.30;;;;;;;17.31;50.20;95640.22;5072718;28;20768;-79
2021/10/02 05:57:27;;;;;;;4.63;3.90;;;;;;;17.44;49.09;95644.31;5072548;28;20451;-79
2021/10/02 05:59:54;;;;;;;5.70;4.90;;;;;;;17.42;48.41;95644.47;5072359;28;20441;-80
2021/10/02 06:02:21;;;;;;;7.80;4.77;;;;;;;17.51;49.37;95650.66;5072668;28;20449;-79
2021/10/02 06:04:48;;;;;;;4.20;3.77;;;;;;;17.81;48.98;95642.28;5053335;28;20437;-79
2021/10/02 06:07:15;;;;;;;4.53;4.10;;;;;;;17.97;48.31;95638.94;5053687;28;20482;-79
2021/10/02 06:09:42;;;;;;;8.00;5.10;;;;;;;17.97;47.71;95640.75;5072346;28;20439;-79
2021/10/02 06:12:10;;;;;;;5.30;4.70;;;;;;;18.09;48.15;95647.44;5072489;28;20454;-79
2021/10/02 06:14:37;;;;;;;4.97;4.47;;;;;;;18.21;47.21;95641.72;5072315;28;20446;-79
2021/10/02 06:17:04;;;;;;;6.10;4.50;;;;;;;18.38;47.31;95650.59;5072354;28;20455;-79
2021/10/02 06:19:31;;;;;;;4.30;4.00;;;;;;;18.67;47.18;95652.91;5070487;28;20451;-79
2021/10/02 06:21:59;;;;;;;7.77;3.63;;;;;;;18.85;46.57;95648.31;5071487;28;20439;-80
2021/10/02 06:24:26;;;;;;;9.40;5.27;;;;;;;19.13;46.34;95648.03;5072056;28;20446;-79
2021/10/02 06:26:53;;;;;;;4.80;4.40;;;;;;;19.33;45.72;95645.88;5053156;28;20509;-79
2021/10/02 06:29:22;;;;;;;9.80;5.13;;;;;;;19.61;45.06;95636.59;5071973;28;20455;-79
2021/10/02 06:31:48;;;;;;;5.30;4.80;;;;;;;19.93;43.45;95648.22;5071939;28;20490;-79
2021/10/02 06:34:16;;;;;;;7.60;5.93;;;;;;;19.80;46.71;95640.75;5072054;28;20458;-79
2021/10/02 06:36:43;;;;;;;6.33;5.50;;;;;;;19.48;46.70;95644.22;5071762;28;20939;-81
2021/10/02 06:39:10;;;;;;;8.67;5.60;;;;;;;19.25;48.27;95649.38;5072050;28;20445;-81
2021/10/02 06:41:37;;;;;;;9.80;6.77;;;;;;;18.92;48.58;95650.31;5071729;28;20520;-81
2021/10/02 06:44:07;;;;;;;6.93;6.20;;;;;;;18.74;49.41;95658.41;5072061;28;20457;-80
2021/10/02 06:46:35;;;;;;;10.23;6.40;;;;;;;18.42;51.23;95651.09;5071343;28;21028;-80
2021/10/02 06:49:02;;;;;;;9.90;6.27;;;;;;;18.17;49.67;95650.97;5071633;28;20445;-81
2021/10/02 06:51:29;;;;;;;9.30;6.57;;;;;;;18.36;50.89;95649.91;5071963;28;20478;-82
2021/10/02 06:53:56;;;;;;;13.70;7.27;;;;;;;18.53;52.80;95650.84;5053004;28;20812;-82
2021/10/02 06:56:23;;;;;;;12.40;6.97;;;;;;;18.80;51.39;95652.44;5072352;28;20441;-82
2021/10/02 06:58:50;;;;;;;6.70;6.20;;;;;;;18.13;52.11;95652.28;5071895;28;20441;-83
2021/10/02 07:01:18;;;;;;;11.97;5.73;;;;;;;18.00;51.24;95654.53;5075001;28;20765;-81
2021/10/02 07:03:47;;;;;;;14.63;6.83;;;;;;;17.48;51.28;95645.66;5057587;28;20450;-83
2021/10/02 07:06:14;;;;;;;9.47;6.10;;;;;;;17.83;51.17;95652.75;5075806;28;21054;-82
2021/10/02 07:08:41;;;;;;;7.23;5.73;;;;;;;17.67;50.41;95660.59;5075854;28;20783;-82
2021/10/02 07:11:07;;;;;;;8.67;6.80;;;;;;;17.38;51.57;95653.72;5075974;28;20444;-82
2021/10/02 07:13:34;;;;;;;8.40;6.90;;;;;;;17.60;52.50;95647.09;5075628;28;20463;-83
2021/10/02 07:16:01;;;;;;;8.70;6.97;;;;;;;17.68;51.98;95649.84;5040249;28;20442;-82
2021/10/02 07:18:28;;;;;;;9.53;7.10;;;;;;;17.39;52.41;95646.59;5040340;28;20816;-82
2021/10/02 07:20:57;;;;;;;13.70;7.07;;;;;;;17.25;52.63;95645.31;5075577;28;20446;-82
2021/10/02 07:23:24;;;;;;;7.33;6.10;;;;;;;16.83;53.75;95647.72;5075413;28;20528;-82
2021/10/02 07:25:52;;;;;;;7.47;5.37;;;;;;;16.85;52.59;95648.41;5075341;28;20492;-82
2021/10/02 07:28:19;;;;;;;7.80;5.43;;;;;;;17.04;51.96;95649.09;5075299;28;20487;-82
2021/10/02 07:30:46;;;;;;;6.43;4.90;;;;;;;17.25;49.07;95647.97;5075436;28;20234;-82
2021/10/02 07:33:13;;;;;;;16.87;5.97;;;;;;;17.36;49.49;95644.25;5075403;28;20441;-81
2021/10/02 07:35:40;;;;;;;6.97;5.97;;;;;;;17.58;51.37;95636.63;5076291;28;20941;-82
2021/10/02 07:38:09;;;;;;;6.17;5.57;;;;;;;17.78;49.83;95639.13;5076380;28;20946;-81
2021/10/02 07:40:38;;;;;;;6.33;5.70;;;;;;;17.51;48.57;95632.94;5074818;28;20452;-81
2021/10/02 07:43:06;;;;;;;14.27;5.97;;;;;;;17.77;49.62;95632.97;5041668;28;20448;-82
2021/10/02 07:45:34;;;;;;;6.13;5.00;;;;;;;17.82;49.32;95630.69;5076266;28;20453;-82
2021/10/02 07:48:03;;;;;;;6.20;5.60;;;;;;;17.87;48.84;95633.69;5075712;28;20458;-81
2021/10/02 07:50:30;;;;;;;9.33;5.50;;;;;;;17.86;49.35;95631.19;5076136;28;20451;-82
2021/10/02 07:52:57;;;;;;;5.23;4.83;;;;;;;18.16;48.32;95627.22;5076257;28;20445;-82
2021/10/02 07:55:26;;;;;;;7.30;6.60;;;;;;;17.89;48.75;95621.09;5076324;28;20910;-81
2021/10/02 07:57:55;;;;;;;5.43;5.03;;;;;;;17.91;49.22;95618.28;5076100;28;20446;-82
2021/10/02 08:00:23;;;;;;;6.20;4.80;;;;;;;18.23;48.79;95628.28;5076134;28;20457;-82
2021/10/02 08:02:53;;;;;;;6.93;5.00;;;;;;;18.48;47.62;95622.03;5076054;28;20442;-82
2021/10/02 08:05:21;;;;;;;7.50;5.40;;;;;;;18.58;46.93;95622.78;5075027;28;20446;-81
2021/10/02 08:07:49;;;;;;;6.10;5.60;;;;;;;18.33;46.43;95617.50;5074340;28;20491;-81
2021/10/02 08:10:21;;;;;;;5.43;4.37;;;;;;;18.34;47.34;95608.56;5074726;28;20448;-81
2021/10/02 08:12:50;;;;;;;5.30;4.60;;;;;;;18.50;47.51;95612.13;5039067;28;20441;-82
2021/10/02 08:15:17;;;;;;;16.53;5.30;;;;;;;18.48;45.71;95606.09;5074886;28;20438;-82
2021/10/02 08:17:45;;;;;;;5.03;4.63;;;;;;;18.10;47.59;95611.94;5074110;28;20771;-80
2021/10/02 08:20:15;;;;;;;5.97;4.40;;;;;;;18.36;48.31;95611.88;5074263;28;20528;-81
2021/10/02 08:22:45;;;;;;;4.53;4.13;;;;;;;18.51;47.55;95613.78;5074281;28;20488;-83
2021/10/02 08:25:13;;;;;;;5.23;4.80;;;;;;;18.06;46.59;95607.94;5074539;28;20456;-81
2021/10/02 08:27:41;;;;;;;5.70;4.70;;;;;;;17.85;46.93;95602.97;5074431;28;20485;-81
2021/10/02 08:30:12;;;;;;;7.37;5.17;;;;;;;18.08;47.94;95608.59;5038738;28;20543;-81
2021/10/02 08:32:39;;;;;;;6.73;5.50;;;;;;;18.26;48.52;95607.53;5074232;28;20455;-81
2021/10/02 08:35:08;;;;;;;4.60;4.20;;;;;;;17.19;48.88;95601.66;5073986;28;20476;-81
2021/10/02 08:37:35;;;;;;;11.40;5.50;;;;;;;17.13;50.71;95596.97;5074232;28;20446;-82
2021/10/02 08:40:04;;;;;;;5.67;4.83;;;;;;;17.27;49.47;95593.75;5074273;28;20444;-81
2021/10/02 08:42:31;;;;;;;5.20;4.50;;;;;;;17.06;50.24;95598.59;5073714;28;20449;-81
2021/10/02 08:45:01;;;;;;;14.10;4.20;;;;;;;16.90;50.62;95598.41;5038754;28;20447;-81
2021/10/02 08:47:39;;;;;;;4.93;3.90;;;;;;;16.70;49.82;95595.06;5038829;28;20559;-82
2021/10/02 08:50:09;;;;;;;7.90;4.27;;;;;;;17.24;50.60;95593.25;5073625;28;20453;-82
2021/10/02 08:52:36;;;;;;;5.70;3.93;;;;;;;17.21;50.31;95589.09;5073568;28;20450;-82
2021/10/02 08:55:05;;;;;;;7.00;4.37;;;;;;;16.94;50.97;95587.34;5073661;28;20451;-82
2021/10/02 08:57:35;;;;;;;4.30;3.67;;;;;;;17.48;51.89;95588.13;5073794;28;20449;-82
2021/10/02 09:00:06;;;;;;;7.50;4.43;;;;;;;17.69;49.08;95586.97;5038466;28;20452;-82
2021/10/02 09:02:35;;;;;;;5.23;4.73;;;;;;;17.89;56.64;95570.66;5073372;28;20455;-79
2021/10/02 09:05:03;;;;;;;4.93;4.53;;;;;;;17.79;47.86;95591.19;5073636;28;20942;-80
2021/10/02 09:07:30;;;;;;;6.07;5.03;;;;;;;17.75;49.48;95576.56;5073218;28;20487;-82
2021/10/02 09:10:01;;;;;;;5.70;4.50;;;;;;;17.98;47.29;95584.81;5073895;28;20929;-81
2021/10/02 09:12:29;;;;;;;5.57;4.87;;;;;;;18.14;47.71;95573.41;5074436;28;20481;-82
2021/10/02 09:14:56;;;;;;;6.00;4.47;;;;;;;18.05;46.44;95577.03;5073974;28;20948;-81
2021/10/02 09:17:24;;;;;;;8.40;4.13;;;;;;;17.56;47.16;95576.72;5037843;28;20453;-84
2021/10/02 09:19:54;;;;;;;4.43;4.03;;;;;;;17.24;47.69;95570.19;5072908;28;20472;-81
2021/10/02 09:22:21;;;;;;;5.80;3.87;;;;;;;17.19;47.32;95561.03;5073228;28;20439;-81
2021/10/02 09:24:49;;;;;;;8.30;4.83;;;;;;;17.30;48.28;95566.94;5073122;28;20441;-80
2021/10/02 09:27:18;;;;;;;9.03;4.63;;;;;;;17.58;48.57;95558.81;5073020;28;20507;-81
2021/10/02 09:29:49;;;;;;;5.80;4.60;;;;;;;17.52;47.52;95564.75;5072831;28;20446;-81
2021/10/02 09:32:19;;;;;;;8.23;5.67;;;;;;;17.25;46.43;95555.13;5072783;28;20456;-81
2021/10/02 09:34:48;;;;;;;6.87;4.37;;;;;;;17.54;46.99;95547.69;5073465;28;20440;-80
2021/10/02 09:37:18;;;;;;;5.30;4.83;;;;;;;17.84;47.01;95557.03;5072710;28;20442;-81
2021/10/02 09:39:46;;;;;;;5.13;4.10;;;;;;;17.87;46.30;95553.22;5073291;28;20461;-82
2021/10/02 09:42:26;;;;;;;5.60;3.83;;;;;;;17.89;46.80;95552.06;5072698;28;20445;-81
2021/10/02 09:44:53;;;;;;;5.27;4.37;;;;;;;17.91;47.36;95552.72;5037270;28;21015;-81
2021/10/02 09:47:20;;;;;;;4.47;4.07;;;;;;;17.98;45.84;95544.97;5072463;28;20988;-81
2021/10/02 09:49:48;;;;;;;7.77;4.47;;;;;;;17.77;45.40;95540.06;5072681;28;20447;-81
2021/10/02 09:52:35;;;;;;;6.00;5.00;;;;;;;17.87;48.28;95527.50;5072730;28;20439;-81
2021/10/02 09:55:15;;;;;;;7.90;3.73;;;;;;;17.84;47.16;95530.47;5072460;28;20444;-80
2021/10/02 09:57:44;;;;;;;7.43;4.70;;;;;;;17.84;47.44;95537.59;5072314;28;20458;-82
2021/10/02 10:00:13;;;;;;;5.00;4.47;;;;;;;17.96;47.31;95539.00;5038016;28;20457;-81
2021/10/02 10:02:42;;;;;;;6.50;4.40;;;;;;;17.81;47.07;95538.75;5072364;28;20447;-81
2021/10/02 10:05:11;;;;;;;4.53;4.13;;;;;;;17.90;48.20;95535.13;5072726;28;20450;-81
2021/10/02 10:07:40;;;;;;;10.33;5.20;;;;;;;18.09;49.90;95523.44;5071847;28;20491;-81
2021/10/02 10:10:10;;;;;;;4.63;4.23;;;;;;;18.20;47.55;95517.81;5072190;28;20445;-81
2021/10/02 10:12:39;;;;;;;5.27;3.90;;;;;;;17.90;46.90;95526.34;5072486;28;20454;-80
2021/10/02 10:15:08;;;;;;;9.73;4.87;;;;;;;17.60;47.01;95514.38;5072342;28;20447;-81
2021/10/02 10:17:35;;;;;;;5.20;4.10;;;;;;;17.69;47.09;95518.78;5072297;28;20441;-81
2021/10/02 10:20:06;;;;;;;5.20;4.70;;;;;;;17.75;46.62;95520.81;5072290;28;20463;-81
2021/10/02 10:22:34;;;;;;;7.70;4.40;;;;;;;17.75;47.88;95523.47;5071922;28;20459;-81
2021/10/02 10:25:05;;;;;;;5.10;3.80;;;;;;;17.81;45.70;95522.00;5072355;28;20536;-81
2021/10/02 10:27:35;;;;;;;4.73;4.03;;;;;;;17.79;48.38;95514.19;5037558;28;20486;-81
2021/10/02 10:30:08;;;;;;;6.13;5.23;;;;;;;17.88;47.35;95518.53;5072279;28;20843;-81
2021/10/02 10:32:35;;;;;;;4.60;4.17;;;;;;;17.84;46.75;95511.88;5071883;28;20988;-81
2021/10/02 10:35:02;;;;;;;5.23;4.73;;;;;;;18.08;47.57;95511.16;5071292;28;20455;-81
2021/10/02 10:37:29;;;;;;;5.10;4.00;;;;;;;17.95;48.09;95508.97;5072034;28;20552;-82
2021/10/02 10:39:58;;;;;;;4.57;4.20;;;;;;;17.87;45.95;95506.25;5072027;28;20480;-81
2021/10/02 10:42:29;;;;;;;4.53;4.13;;;;;;;17.80;46.60;95513.19;5072166;28;20446;-81
2021/10/02 10:44:56;;;;;;;6.30;3.93;;;;;;;17.84;45.91;95498.59;5071872;28;20452;-81
2021/10/02 10:47:24;;;;;;;5.37;4.83;;;;;;;17.82;46.19;95494.44;5071850;28;20535;-81
2021/10/02 10:49:51;;;;;;;9.73;4.20;;;;;;;17.97;46.19;95494.69;5072096;28;20446;-81
2021/10/02 10:52:20;;;;;;;4.50;3.77;;;;;;;17.86;45.91;95498.44;5071981;28;20442;-81
2021/10/02 10:54:51;;;;;;;5.45;4.43;;;;;;;18.03;44.59;95486.06;5071633;28;20835;-81
2021/10/02 10:57:37;;;;;;;7.60;4.50;;;;;;;18.00;44.76;95489.06;5053439;28;20286;-81
2021/10/02 11:00:07;;;;;;;4.80;4.40;;;;;;;17.95;44.96;95497.50;5071174;28;20442;-81
2021/10/02 11:02:53;;;;;;;5.33;4.27;;;;;;;18.02;45.09;95481.75;5071680;28;20446;-81
2021/10/02 11:06:01;;;;;;;3.83;3.47;;;;;;;18.28;44.96;95477.19;5071725;28;20437;-81
2021/10/02 11:09:01;;;;;;;5.00;4.30;;;;;;;18.23;44.75;95474.19;5007244;28;20475;-81
2021/10/02 11:11:56;;;;;;;6.33;3.80;;;;;;;18.27;45.35;95464.91;5009513;28;20453;-81
2021/10/02 11:14:46;;;;;;;8.10;3.80;;;;;;;18.38;43.89;95467.22;5008317;28;20531;-81
2021/10/02 11:17:14;;;;;;;9.63;4.43;;;;;;;18.06;44.42;95465.34;5006669;28;20453;-80
2021/10/02 11:19:43;;;;;;;8.53;4.87;;;;;;;17.90;44.94;95462.63;5002701;28;20454;-81
2021/10/02 11:23:04;;;;;;;6.40;4.00;;;;;;;18.09;42.72;95461.53;4980992;28;20835;-81
2021/10/02 11:25:31;;;;;;;4.77;4.30;;;;;;;18.24;42.93;95454.59;4895555;29;20455;-81
2021/10/02 11:28:28;;;;;;;4.27;3.97;;;;;;;18.41;44.16;95453.63;4895236;29;20489;-81
2021/10/02 11:30:57;;;;;;;3.53;3.30;;;;;;;18.42;43.10;95457.09;4895001;29;20534;-81
2021/10/02 11:33:33;;;;;;;4.10;3.50;;;;;;;18.56;42.94;95453.81;4895334;29;20523;-81
2021/10/02 11:36:00;;;;;;;3.87;3.40;;;;;;;18.49;43.32;95445.63;4895620;29;20936;-81
2021/10/02 11:38:37;;;;;;;5.70;4.63;;;;;;;18.60;43.85;95441.00;4895542;29;20464;-85
2021/10/02 11:41:22;;;;;;;6.07;4.10;;;;;;;18.98;50.26;95442.19;4894483;29;20444;-80
2021/10/02 11:43:54;;;;;;;4.67;3.23;;;;;;;19.10;41.85;95436.38;4895545;29;20463;-82
2021/10/02 11:46:25;;;;;;;4.30;3.90;;;;;;;19.19;42.04;95426.53;4916352;29;20456;-81
2021/10/02 11:48:53;;;;;;;4.77;4.30;;;;;;;19.24;40.99;95423.34;4917851;29;20501;-81
2021/10/02 11:51:23;;;;;;;5.77;4.87;;;;;;;19.29;40.93;95432.47;4918007;29;20449;-82
2021/10/02 11:53:51;;;;;;;4.93;4.10;;;;;;;19.14;40.94;95429.69;4921100;29;20455;-82
2021/10/02 11:56:21;;;;;;;5.37;3.50;;;;;;;18.93;42.90;95441.88;4916365;29;20460;-81
2021/10/02 11:58:50;;;;;;;4.03;3.10;;;;;;;18.72;41.07;95434.38;4916135;29;20474;-81
2021/10/02 12:01:23;;;;;;;3.90;3.60;;;;;;;18.51;40.89;95430.38;4927184;28;20462;-81
2021/10/02 12:03:58;;;;;;;5.27;4.17;;;;;;;18.50;42.38;95433.19;5050905;28;20453;-81
2021/10/02 12:06:25;;;;;;;4.00;3.70;;;;;;;18.32;42.60;95433.34;5054594;28;20459;-81
2021/10/02 12:08:52;;;;;;;5.10;3.40;;;;;;;18.49;43.52;95434.19;5054596;28;20498;-81
2021/10/02 12:11:19;;;;;;;4.40;3.77;;;;;;;18.60;42.89;95428.56;5055582;28;20986;-81
2021/10/02 12:13:49;;;;;;;4.03;3.47;;;;;;;18.42;42.31;95431.34;5055670;28;20537;-81
2021/10/02 12:16:19;;;;;;;4.83;3.63;;;;;;;18.59;41.95;95432.22;5062101;28;20454;-81
2021/10/02 12:18:56;;;;;;;5.93;3.60;;;;;;;18.51;42.20;95425.06;5074230;28;20451;-81
2021/10/02 12:21:42;;;;;;;6.57;3.20;;;;;;;18.45;42.15;95424.88;5074152;28;20461;-81
2021/10/02 12:24:16;;;;;;;3.40;3.10;;;;;;;18.38;43.14;95429.19;5074550;28;20450;-87
2021/10/02 12:26:47;;;;;;;5.50;4.47;;;;;;;18.27;42.86;95430.34;5073708;28;20953;-81
2021/10/02 12:29:17;;;;;;;4.63;4.30;;;;;;;18.35;43.99;95419.72;5074390;28;20845;-81
2021/10/02 12:31:47;;;;;;;4.53;4.10;;;;;;;18.46;42.98;95414.06;5055228;28;20481;-81